< < Back
Terminal Aerodrome Forecast


Current Version              Previous Versions:   1  2  3  4  5  6  7  8  9  

Terminal Aerodrome Forecast

079
FTUS42 KTAE 221700
TAFDHN
TAF
KDHN 221720Z 2218/2318 34006KT P6SM SCT050=

Latest METAR

135
SAUS70 KWBC 230300 RRJ
MTRDHN
METAR KDHN 230253Z AUTO 18003KT 10SM CLR 27/23 A3006 RMK AO2 SLP171
T02670233 53009


USA.gov is the U.S. government's official web portal to all federal, state and local government web resources and services.